sensor_id;sensor_type;location;lat;lon;timestamp;P1;durP1;ratioP1;P2;durP2;ratioP2
82030;SDS011;71592;52.178;4.512;2023-08-24T00:00:36;8.45;;;6.07;;
82030;SDS011;71592;52.178;4.512;2023-08-24T00:03:02;9.48;;;5.57;;
82030;SDS011;71592;52.178;4.512;2023-08-24T00:05:28;6.57;;;5.40;;
82030;SDS011;71592;52.178;4.512;2023-08-24T00:07:54;8.45;;;5.75;;
82030;SDS011;71592;52.178;4.512;2023-08-24T00:10:19;7.55;;;4.90;;
82030;SDS011;71592;52.178;4.512;2023-08-24T00:12:45;10.25;;;6.47;;
82030;SDS011;71592;52.178;4.512;2023-08-24T00:15:10;9.75;;;5.68;;
82030;SDS011;71592;52.178;4.512;2023-08-24T00:17:37;8.05;;;5.00;;
82030;SDS011;71592;52.178;4.512;2023-08-24T00:20:03;8.85;;;5.15;;
82030;SDS011;71592;52.178;4.512;2023-08-24T00:22:31;8.27;;;5.35;;
82030;SDS011;71592;52.178;4.512;2023-08-24T00:24:57;8.15;;;5.18;;
82030;SDS011;71592;52.178;4.512;2023-08-24T00:27:22;9.18;;;5.25;;
82030;SDS011;71592;52.178;4.512;2023-08-24T00:29:48;9.32;;;5.00;;
82030;SDS011;71592;52.178;4.512;2023-08-24T00:32:13;8.45;;;5.65;;
82030;SDS011;71592;52.178;4.512;2023-08-24T00:34:38;8.75;;;5.85;;
82030;SDS011;71592;52.178;4.512;2023-08-24T00:37:04;7.75;;;5.53;;
82030;SDS011;71592;52.178;4.512;2023-08-24T00:39:29;8.30;;;5.72;;
82030;SDS011;71592;52.178;4.512;2023-08-24T00:41:55;9.63;;;5.50;;
82030;SDS011;71592;52.178;4.512;2023-08-24T00:44:20;9.70;;;5.38;;
82030;SDS011;71592;52.178;4.512;2023-08-24T00:46:45;11.60;;;6.65;;
82030;SDS011;71592;52.178;4.512;2023-08-24T00:49:11;8.63;;;5.95;;
82030;SDS011;71592;52.178;4.512;2023-08-24T00:51:36;9.63;;;6.38;;
82030;SDS011;71592;52.178;4.512;2023-08-24T00:54:03;8.02;;;5.82;;
82030;SDS011;71592;52.178;4.512;2023-08-24T00:56:28;6.75;;;5.45;;
82030;SDS011;71592;52.178;4.512;2023-08-24T00:58:55;7.97;;;4.88;;
82030;SDS011;71592;52.178;4.512;2023-08-24T01:01:21;9.38;;;6.10;;
82030;SDS011;71592;52.178;4.512;2023-08-24T01:03:46;10.43;;;5.68;;
82030;SDS011;71592;52.178;4.512;2023-08-24T01:06:12;9.63;;;5.88;;
82030;SDS011;71592;52.178;4.512;2023-08-24T01:08:37;9.50;;;5.75;;
82030;SDS011;71592;52.178;4.512;2023-08-24T01:11:06;8.73;;;5.25;;
82030;SDS011;71592;52.178;4.512;2023-08-24T01:16:28;9.00;;;5.15;;
82030;SDS011;71592;52.178;4.512;2023-08-24T01:18:56;8.10;;;4.93;;
82030;SDS011;71592;52.178;4.512;2023-08-24T01:21:24;9.57;;;5.47;;
82030;SDS011;71592;52.178;4.512;2023-08-24T01:23:59;9.35;;;5.60;;
82030;SDS011;71592;52.178;4.512;2023-08-24T01:26:48;9.60;;;5.00;;
82030;SDS011;71592;52.178;4.512;2023-08-24T01:29:17;7.45;;;5.68;;
82030;SDS011;71592;52.178;4.512;2023-08-24T01:31:45;7.63;;;5.28;;
82030;SDS011;71592;52.178;4.512;2023-08-24T01:34:14;7.85;;;5.28;;
82030;SDS011;71592;52.178;4.512;2023-08-24T01:36:39;8.18;;;5.43;;
82030;SDS011;71592;52.178;4.512;2023-08-24T01:39:11;10.73;;;5.82;;
82030;SDS011;71592;52.178;4.512;2023-08-24T01:41:43;7.03;;;5.20;;
82030;SDS011;71592;52.178;4.512;2023-08-24T01:44:14;9.15;;;5.18;;
82030;SDS011;71592;52.178;4.512;2023-08-24T01:46:43;9.05;;;6.15;;
82030;SDS011;71592;52.178;4.512;2023-08-24T01:49:11;11.48;;;6.13;;
82030;SDS011;71592;52.178;4.512;2023-08-24T01:51:38;9.13;;;5.93;;
82030;SDS011;71592;52.178;4.512;2023-08-24T01:54:05;9.82;;;6.03;;
82030;SDS011;71592;52.178;4.512;2023-08-24T01:56:31;10.82;;;5.88;;
82030;SDS011;71592;52.178;4.512;2023-08-24T01:58:56;7.68;;;5.53;;
82030;SDS011;71592;52.178;4.512;2023-08-24T02:01:22;10.85;;;6.38;;
82030;SDS011;71592;52.178;4.512;2023-08-24T02:03:47;9.57;;;6.28;;
82030;SDS011;71592;52.178;4.512;2023-08-24T02:06:13;9.82;;;6.20;;
82030;SDS011;71592;52.178;4.512;2023-08-24T02:08:38;10.65;;;5.80;;
82030;SDS011;71592;52.178;4.512;2023-08-24T02:11:03;11.13;;;6.18;;
82030;SDS011;71592;52.178;4.512;2023-08-24T02:13:29;8.77;;;5.95;;
82030;SDS011;71592;52.178;4.512;2023-08-24T02:16:27;10.80;;;6.55;;
82030;SDS011;71592;52.178;4.512;2023-08-24T02:18:46;9.32;;;5.78;;
82030;SDS011;71592;52.178;4.512;2023-08-24T02:21:11;8.65;;;5.68;;
82030;SDS011;71592;52.178;4.512;2023-08-24T02:23:37;9.60;;;5.95;;
82030;SDS011;71592;52.178;4.512;2023-08-24T02:26:03;10.98;;;5.85;;
82030;SDS011;71592;52.178;4.512;2023-08-24T02:28:29;8.90;;;5.75;;
82030;SDS011;71592;52.178;4.512;2023-08-24T02:30:55;7.93;;;5.93;;
82030;SDS011;71592;52.178;4.512;2023-08-24T02:33:25;10.93;;;6.85;;
82030;SDS011;71592;52.178;4.512;2023-08-24T02:35:50;11.02;;;6.28;;
82030;SDS011;71592;52.178;4.512;2023-08-24T02:38:16;11.52;;;6.50;;
82030;SDS011;71592;52.178;4.512;2023-08-24T02:40:41;9.13;;;5.93;;
82030;SDS011;71592;52.178;4.512;2023-08-24T02:43:06;11.93;;;6.38;;
82030;SDS011;71592;52.178;4.512;2023-08-24T02:45:32;8.05;;;5.70;;
82030;SDS011;71592;52.178;4.512;2023-08-24T02:47:58;9.07;;;6.00;;
82030;SDS011;71592;52.178;4.512;2023-08-24T02:50:23;10.40;;;5.93;;
82030;SDS011;71592;52.178;4.512;2023-08-24T02:52:49;7.82;;;5.60;;
82030;SDS011;71592;52.178;4.512;2023-08-24T02:55:17;9.23;;;5.55;;
82030;SDS011;71592;52.178;4.512;2023-08-24T02:57:43;12.93;;;6.10;;
82030;SDS011;71592;52.178;4.512;2023-08-24T03:00:08;8.32;;;6.22;;
82030;SDS011;71592;52.178;4.512;2023-08-24T03:02:35;8.00;;;5.65;;
82030;SDS011;71592;52.178;4.512;2023-08-24T03:05:01;10.18;;;6.95;;
82030;SDS011;71592;52.178;4.512;2023-08-24T03:07:27;11.65;;;6.03;;
82030;SDS011;71592;52.178;4.512;2023-08-24T03:09:53;9.00;;;5.75;;
82030;SDS011;71592;52.178;4.512;2023-08-24T03:12:18;9.07;;;5.63;;
82030;SDS011;71592;52.178;4.512;2023-08-24T03:14:44;10.65;;;6.82;;
82030;SDS011;71592;52.178;4.512;2023-08-24T03:17:09;10.65;;;6.95;;
82030;SDS011;71592;52.178;4.512;2023-08-24T03:19:34;8.50;;;6.18;;
82030;SDS011;71592;52.178;4.512;2023-08-24T03:22:00;9.10;;;6.72;;
82030;SDS011;71592;52.178;4.512;2023-08-24T03:24:25;7.78;;;6.40;;
82030;SDS011;71592;52.178;4.512;2023-08-24T03:26:51;10.52;;;6.95;;
82030;SDS011;71592;52.178;4.512;2023-08-24T03:29:16;10.35;;;6.13;;
82030;SDS011;71592;52.178;4.512;2023-08-24T03:31:41;11.30;;;6.68;;
82030;SDS011;71592;52.178;4.512;2023-08-24T03:34:07;8.93;;;6.30;;
82030;SDS011;71592;52.178;4.512;2023-08-24T03:36:32;9.60;;;6.32;;
82030;SDS011;71592;52.178;4.512;2023-08-24T03:38:58;11.10;;;7.38;;
82030;SDS011;71592;52.178;4.512;2023-08-24T03:41:23;10.75;;;7.10;;
82030;SDS011;71592;52.178;4.512;2023-08-24T03:43:48;10.57;;;6.57;;
82030;SDS011;71592;52.178;4.512;2023-08-24T03:46:17;9.93;;;6.20;;
82030;SDS011;71592;52.178;4.512;2023-08-24T03:48:42;9.10;;;6.22;;
82030;SDS011;71592;52.178;4.512;2023-08-24T03:51:08;9.80;;;7.35;;
82030;SDS011;71592;52.178;4.512;2023-08-24T03:53:33;14.77;;;7.30;;
82030;SDS011;71592;52.178;4.512;2023-08-24T03:55:59;7.72;;;6.20;;
82030;SDS011;71592;52.178;4.512;2023-08-24T03:58:24;12.07;;;6.78;;
82030;SDS011;71592;52.178;4.512;2023-08-24T04:00:50;11.68;;;7.70;;
82030;SDS011;71592;52.178;4.512;2023-08-24T04:03:15;9.13;;;6.82;;
82030;SDS011;71592;52.178;4.512;2023-08-24T04:05:41;13.25;;;7.38;;
82030;SDS011;71592;52.178;4.512;2023-08-24T04:08:07;10.95;;;7.90;;
82030;SDS011;71592;52.178;4.512;2023-08-24T04:10:32;10.55;;;6.50;;
82030;SDS011;71592;52.178;4.512;2023-08-24T04:12:58;9.85;;;7.07;;
82030;SDS011;71592;52.178;4.512;2023-08-24T04:15:24;11.57;;;7.65;;
82030;SDS011;71592;52.178;4.512;2023-08-24T04:17:50;11.00;;;6.65;;
82030;SDS011;71592;52.178;4.512;2023-08-24T04:20:15;8.90;;;7.03;;
82030;SDS011;71592;52.178;4.512;2023-08-24T04:22:41;11.55;;;7.20;;
82030;SDS011;71592;52.178;4.512;2023-08-24T04:25:07;8.93;;;6.47;;
82030;SDS011;71592;52.178;4.512;2023-08-24T04:27:33;10.85;;;7.03;;
82030;SDS011;71592;52.178;4.512;2023-08-24T04:29:59;9.55;;;6.65;;
82030;SDS011;71592;52.178;4.512;2023-08-24T04:32:25;9.68;;;6.82;;
82030;SDS011;71592;52.178;4.512;2023-08-24T04:34:52;11.05;;;7.05;;
82030;SDS011;71592;52.178;4.512;2023-08-24T04:37:18;11.52;;;8.07;;
82030;SDS011;71592;52.178;4.512;2023-08-24T04:39:43;13.18;;;7.75;;
82030;SDS011;71592;52.178;4.512;2023-08-24T04:42:08;9.70;;;6.65;;
82030;SDS011;71592;52.178;4.512;2023-08-24T04:44:34;10.45;;;7.82;;
82030;SDS011;71592;52.178;4.512;2023-08-24T04:46:59;10.50;;;6.88;;
82030;SDS011;71592;52.178;4.512;2023-08-24T04:49:25;10.63;;;7.43;;
82030;SDS011;71592;52.178;4.512;2023-08-24T04:51:50;9.77;;;7.25;;
82030;SDS011;71592;52.178;4.512;2023-08-24T04:54:16;10.05;;;6.57;;
82030;SDS011;71592;52.178;4.512;2023-08-24T04:56:41;10.65;;;7.63;;
82030;SDS011;71592;52.178;4.512;2023-08-24T04:59:08;9.15;;;6.50;;
82030;SDS011;71592;52.178;4.512;2023-08-24T05:01:33;11.32;;;6.80;;
82030;SDS011;71592;52.178;4.512;2023-08-24T05:03:59;10.60;;;6.90;;
82030;SDS011;71592;52.178;4.512;2023-08-24T05:06:25;11.75;;;7.38;;
82030;SDS011;71592;52.178;4.512;2023-08-24T05:08:51;12.15;;;7.88;;
82030;SDS011;71592;52.178;4.512;2023-08-24T05:11:18;10.70;;;7.28;;
82030;SDS011;71592;52.178;4.512;2023-08-24T05:13:45;11.88;;;7.15;;
82030;SDS011;71592;52.178;4.512;2023-08-24T05:16:11;9.55;;;7.18;;
82030;SDS011;71592;52.178;4.512;2023-08-24T05:18:38;10.77;;;7.97;;
82030;SDS011;71592;52.178;4.512;2023-08-24T05:21:04;11.05;;;7.38;;
82030;SDS011;71592;52.178;4.512;2023-08-24T05:23:30;12.20;;;7.68;;
82030;SDS011;71592;52.178;4.512;2023-08-24T05:25:56;12.63;;;7.88;;
82030;SDS011;71592;52.178;4.512;2023-08-24T05:28:23;12.15;;;7.70;;
82030;SDS011;71592;52.178;4.512;2023-08-24T05:30:52;11.75;;;7.55;;
82030;SDS011;71592;52.178;4.512;2023-08-24T05:33:19;12.07;;;7.68;;
82030;SDS011;71592;52.178;4.512;2023-08-24T05:35:46;13.32;;;8.25;;
82030;SDS011;71592;52.178;4.512;2023-08-24T05:38:13;15.73;;;7.75;;
82030;SDS011;71592;52.178;4.512;2023-08-24T05:40:39;13.07;;;8.50;;
82030;SDS011;71592;52.178;4.512;2023-08-24T05:43:04;13.82;;;7.88;;
82030;SDS011;71592;52.178;4.512;2023-08-24T05:45:30;13.85;;;7.43;;
82030;SDS011;71592;52.178;4.512;2023-08-24T05:47:55;12.55;;;8.48;;
82030;SDS011;71592;52.178;4.512;2023-08-24T05:50:20;13.50;;;7.72;;
82030;SDS011;71592;52.178;4.512;2023-08-24T05:52:46;11.48;;;7.82;;
82030;SDS011;71592;52.178;4.512;2023-08-24T05:55:11;11.48;;;7.28;;
82030;SDS011;71592;52.178;4.512;2023-08-24T05:57:37;9.50;;;6.78;;
82030;SDS011;71592;52.178;4.512;2023-08-24T06:00:03;11.80;;;7.93;;
82030;SDS011;71592;52.178;4.512;2023-08-24T06:02:34;11.10;;;7.25;;
82030;SDS011;71592;52.178;4.512;2023-08-24T06:05:00;10.70;;;7.45;;
82030;SDS011;71592;52.178;4.512;2023-08-24T06:07:25;9.68;;;7.35;;
82030;SDS011;71592;52.178;4.512;2023-08-24T06:09:51;11.07;;;7.57;;
82030;SDS011;71592;52.178;4.512;2023-08-24T06:12:16;9.82;;;7.13;;
82030;SDS011;71592;52.178;4.512;2023-08-24T06:14:42;11.95;;;7.50;;
82030;SDS011;71592;52.178;4.512;2023-08-24T06:17:07;9.35;;;7.30;;
82030;SDS011;71592;52.178;4.512;2023-08-24T06:19:32;14.23;;;8.00;;
82030;SDS011;71592;52.178;4.512;2023-08-24T06:21:58;11.80;;;7.72;;
82030;SDS011;71592;52.178;4.512;2023-08-24T06:24:23;9.48;;;7.30;;
82030;SDS011;71592;52.178;4.512;2023-08-24T06:26:49;11.07;;;7.22;;
82030;SDS011;71592;52.178;4.512;2023-08-24T06:29:14;9.50;;;7.38;;
82030;SDS011;71592;52.178;4.512;2023-08-24T06:31:40;12.85;;;8.05;;
82030;SDS011;71592;52.178;4.512;2023-08-24T06:34:05;9.63;;;7.43;;
82030;SDS011;71592;52.178;4.512;2023-08-24T06:36:31;10.52;;;8.05;;
82030;SDS011;71592;52.178;4.512;2023-08-24T06:38:56;11.40;;;7.32;;
82030;SDS011;71592;52.178;4.512;2023-08-24T06:41:23;10.43;;;7.65;;
82030;SDS011;71592;52.178;4.512;2023-08-24T06:43:52;10.15;;;7.68;;
82030;SDS011;71592;52.178;4.512;2023-08-24T06:46:19;8.90;;;6.72;;
82030;SDS011;71592;52.178;4.512;2023-08-24T06:48:44;11.52;;;7.90;;
82030;SDS011;71592;52.178;4.512;2023-08-24T06:51:10;12.40;;;7.65;;
82030;SDS011;71592;52.178;4.512;2023-08-24T06:53:36;12.23;;;7.53;;
82030;SDS011;71592;52.178;4.512;2023-08-24T06:56:01;9.55;;;7.28;;
82030;SDS011;71592;52.178;4.512;2023-08-24T06:58:26;11.27;;;7.85;;
82030;SDS011;71592;52.178;4.512;2023-08-24T07:00:52;10.73;;;8.02;;
82030;SDS011;71592;52.178;4.512;2023-08-24T07:03:18;11.13;;;7.88;;
82030;SDS011;71592;52.178;4.512;2023-08-24T07:05:44;11.48;;;9.18;;
82030;SDS011;71592;52.178;4.512;2023-08-24T07:08:10;14.27;;;8.82;;
82030;SDS011;71592;52.178;4.512;2023-08-24T07:10:35;12.43;;;8.65;;
82030;SDS011;71592;52.178;4.512;2023-08-24T07:13:01;11.93;;;8.27;;
82030;SDS011;71592;52.178;4.512;2023-08-24T07:15:26;12.50;;;9.07;;
82030;SDS011;71592;52.178;4.512;2023-08-24T07:17:52;15.30;;;8.98;;
82030;SDS011;71592;52.178;4.512;2023-08-24T07:20:18;11.20;;;8.43;;
82030;SDS011;71592;52.178;4.512;2023-08-24T07:22:44;12.00;;;9.48;;
82030;SDS011;71592;52.178;4.512;2023-08-24T07:25:10;15.23;;;9.30;;
82030;SDS011;71592;52.178;4.512;2023-08-24T07:27:37;14.05;;;10.07;;
82030;SDS011;71592;52.178;4.512;2023-08-24T07:30:02;15.02;;;9.88;;
82030;SDS011;71592;52.178;4.512;2023-08-24T07:32:30;13.65;;;9.13;;
82030;SDS011;71592;52.178;4.512;2023-08-24T07:34:56;15.60;;;10.35;;
82030;SDS011;71592;52.178;4.512;2023-08-24T07:37:24;16.48;;;11.63;;
82030;SDS011;71592;52.178;4.512;2023-08-24T07:39:50;16.70;;;10.43;;
82030;SDS011;71592;52.178;4.512;2023-08-24T07:42:19;14.80;;;10.10;;
82030;SDS011;71592;52.178;4.512;2023-08-24T07:44:46;15.50;;;10.73;;
82030;SDS011;71592;52.178;4.512;2023-08-24T07:47:11;15.68;;;10.23;;
82030;SDS011;71592;52.178;4.512;2023-08-24T07:49:36;14.50;;;10.95;;
82030;SDS011;71592;52.178;4.512;2023-08-24T07:52:05;16.70;;;10.55;;
82030;SDS011;71592;52.178;4.512;2023-08-24T07:54:31;14.75;;;11.07;;
82030;SDS011;71592;52.178;4.512;2023-08-24T07:56:57;15.30;;;10.90;;
82030;SDS011;71592;52.178;4.512;2023-08-24T07:59:23;15.45;;;10.35;;
82030;SDS011;71592;52.178;4.512;2023-08-24T08:01:48;17.95;;;12.13;;
82030;SDS011;71592;52.178;4.512;2023-08-24T08:04:14;15.43;;;11.15;;
82030;SDS011;71592;52.178;4.512;2023-08-24T08:06:39;14.75;;;11.07;;
82030;SDS011;71592;52.178;4.512;2023-08-24T08:09:04;16.30;;;10.70;;
82030;SDS011;71592;52.178;4.512;2023-08-24T08:11:30;13.65;;;10.75;;
82030;SDS011;71592;52.178;4.512;2023-08-24T08:13:56;11.85;;;9.40;;
82030;SDS011;71592;52.178;4.512;2023-08-24T08:16:21;18.17;;;11.25;;
82030;SDS011;71592;52.178;4.512;2023-08-24T08:18:46;17.98;;;10.93;;
82030;SDS011;71592;52.178;4.512;2023-08-24T08:21:15;15.90;;;10.90;;
82030;SDS011;71592;52.178;4.512;2023-08-24T08:23:44;15.13;;;10.52;;
82030;SDS011;71592;52.178;4.512;2023-08-24T08:26:10;15.32;;;11.07;;
82030;SDS011;71592;52.178;4.512;2023-08-24T08:28:36;14.02;;;10.27;;
82030;SDS011;71592;52.178;4.512;2023-08-24T08:31:02;14.02;;;10.25;;
82030;SDS011;71592;52.178;4.512;2023-08-24T08:33:28;16.55;;;10.75;;
82030;SDS011;71592;52.178;4.512;2023-08-24T08:35:54;14.45;;;10.20;;
82030;SDS011;71592;52.178;4.512;2023-08-24T08:38:19;14.85;;;10.70;;
82030;SDS011;71592;52.178;4.512;2023-08-24T08:40:50;16.70;;;10.82;;
82030;SDS011;71592;52.178;4.512;2023-08-24T08:43:16;14.00;;;10.60;;
82030;SDS011;71592;52.178;4.512;2023-08-24T08:45:41;15.25;;;11.95;;
82030;SDS011;71592;52.178;4.512;2023-08-24T08:48:07;14.63;;;10.40;;
82030;SDS011;71592;52.178;4.512;2023-08-24T08:50:34;12.77;;;10.18;;
82030;SDS011;71592;52.178;4.512;2023-08-24T08:53:00;14.63;;;10.45;;
82030;SDS011;71592;52.178;4.512;2023-08-24T08:55:26;19.88;;;11.07;;
82030;SDS011;71592;52.178;4.512;2023-08-24T08:57:55;16.58;;;10.50;;
82030;SDS011;71592;52.178;4.512;2023-08-24T09:00:24;15.52;;;10.90;;
82030;SDS011;71592;52.178;4.512;2023-08-24T09:02:49;19.60;;;11.50;;
82030;SDS011;71592;52.178;4.512;2023-08-24T09:05:17;14.02;;;11.15;;
82030;SDS011;71592;52.178;4.512;2023-08-24T09:07:45;13.70;;;10.32;;
82030;SDS011;71592;52.178;4.512;2023-08-24T09:10:12;14.70;;;10.63;;
82030;SDS011;71592;52.178;4.512;2023-08-24T09:12:38;12.93;;;10.77;;
82030;SDS011;71592;52.178;4.512;2023-08-24T09:15:04;17.02;;;11.02;;
82030;SDS011;71592;52.178;4.512;2023-08-24T09:17:31;15.95;;;10.95;;
82030;SDS011;71592;52.178;4.512;2023-08-24T09:19:58;15.02;;;12.18;;
82030;SDS011;71592;52.178;4.512;2023-08-24T09:22:25;14.32;;;10.88;;
82030;SDS011;71592;52.178;4.512;2023-08-24T09:24:50;15.38;;;12.63;;
82030;SDS011;71592;52.178;4.512;2023-08-24T09:27:20;14.70;;;11.07;;
82030;SDS011;71592;52.178;4.512;2023-08-24T09:29:55;16.48;;;11.27;;
82030;SDS011;71592;52.178;4.512;2023-08-24T09:34:50;15.98;;;12.15;;
82030;SDS011;71592;52.178;4.512;2023-08-24T09:37:15;15.30;;;11.10;;
82030;SDS011;71592;52.178;4.512;2023-08-24T09:39:41;16.20;;;11.80;;
82030;SDS011;71592;52.178;4.512;2023-08-24T09:42:07;15.95;;;11.23;;
82030;SDS011;71592;52.178;4.512;2023-08-24T09:44:32;15.40;;;12.75;;
82030;SDS011;71592;52.178;4.512;2023-08-24T09:46:58;15.00;;;12.27;;
82030;SDS011;71592;52.178;4.512;2023-08-24T09:49:24;16.08;;;11.73;;
82030;SDS011;71592;52.178;4.512;2023-08-24T09:51:51;17.27;;;12.05;;
82030;SDS011;71592;52.178;4.512;2023-08-24T09:54:23;16.80;;;11.73;;
82030;SDS011;71592;52.178;4.512;2023-08-24T09:56:51;17.65;;;12.63;;
82030;SDS011;71592;52.178;4.512;2023-08-24T09:59:19;18.35;;;13.13;;
82030;SDS011;71592;52.178;4.512;2023-08-24T10:01:49;15.63;;;11.85;;
82030;SDS011;71592;52.178;4.512;2023-08-24T10:04:20;18.90;;;12.90;;
82030;SDS011;71592;52.178;4.512;2023-08-24T10:06:48;14.63;;;12.52;;
82030;SDS011;71592;52.178;4.512;2023-08-24T10:09:40;19.23;;;13.20;;
82030;SDS011;71592;52.178;4.512;2023-08-24T10:12:18;16.80;;;12.07;;
82030;SDS011;71592;52.178;4.512;2023-08-24T10:14:52;16.60;;;12.77;;
82030;SDS011;71592;52.178;4.512;2023-08-24T10:17:22;15.60;;;12.30;;
82030;SDS011;71592;52.178;4.512;2023-08-24T10:19:48;19.75;;;13.43;;
82030;SDS011;71592;52.178;4.512;2023-08-24T10:22:18;14.65;;;11.95;;
82030;SDS011;71592;52.178;4.512;2023-08-24T10:24:45;16.25;;;12.88;;
82030;SDS011;71592;52.178;4.512;2023-08-24T10:27:12;15.65;;;13.15;;
82030;SDS011;71592;52.178;4.512;2023-08-24T10:29:39;15.30;;;12.35;;
82030;SDS011;71592;52.178;4.512;2023-08-24T10:32:04;20.63;;;13.35;;
82030;SDS011;71592;52.178;4.512;2023-08-24T10:34:31;16.02;;;12.20;;
82030;SDS011;71592;52.178;4.512;2023-08-24T10:36:57;14.82;;;12.23;;
82030;SDS011;71592;52.178;4.512;2023-08-24T10:39:28;14.90;;;11.25;;
82030;SDS011;71592;52.178;4.512;2023-08-24T10:41:54;15.68;;;11.00;;
82030;SDS011;71592;52.178;4.512;2023-08-24T10:44:36;16.73;;;11.55;;
82030;SDS011;71592;52.178;4.512;2023-08-24T10:47:06;15.35;;;11.70;;
82030;SDS011;71592;52.178;4.512;2023-08-24T10:52:24;16.80;;;11.18;;
82030;SDS011;71592;52.178;4.512;2023-08-24T10:54:57;16.23;;;11.57;;
82030;SDS011;71592;52.178;4.512;2023-08-24T10:57:27;13.85;;;11.40;;
82030;SDS011;71592;52.178;4.512;2023-08-24T11:00:02;16.55;;;13.18;;
82030;SDS011;71592;52.178;4.512;2023-08-24T11:05:29;15.45;;;12.13;;
82030;SDS011;71592;52.178;4.512;2023-08-24T11:08:01;17.08;;;11.55;;
82030;SDS011;71592;52.178;4.512;2023-08-24T11:13:09;15.30;;;12.32;;
82030;SDS011;71592;52.178;4.512;2023-08-24T11:15:37;15.68;;;14.07;;
82030;SDS011;71592;52.178;4.512;2023-08-24T11:18:19;14.57;;;13.07;;
82030;SDS011;71592;52.178;4.512;2023-08-24T11:20:46;17.15;;;13.98;;
82030;SDS011;71592;52.178;4.512;2023-08-24T11:23:12;18.15;;;13.30;;
82030;SDS011;71592;52.178;4.512;2023-08-24T11:25:39;19.60;;;14.70;;
82030;SDS011;71592;52.178;4.512;2023-08-24T11:28:05;20.15;;;13.32;;
82030;SDS011;71592;52.178;4.512;2023-08-24T11:30:31;16.58;;;14.73;;
82030;SDS011;71592;52.178;4.512;2023-08-24T11:33:00;19.05;;;14.80;;
82030;SDS011;71592;52.178;4.512;2023-08-24T11:35:27;15.82;;;13.50;;
82030;SDS011;71592;52.178;4.512;2023-08-24T11:37:53;19.65;;;14.52;;
82030;SDS011;71592;52.178;4.512;2023-08-24T11:40:19;18.10;;;14.88;;
82030;SDS011;71592;52.178;4.512;2023-08-24T11:42:54;17.33;;;14.20;;
82030;SDS011;71592;52.178;4.512;2023-08-24T11:45:20;18.50;;;15.35;;
82030;SDS011;71592;52.178;4.512;2023-08-24T11:47:46;18.83;;;17.02;;
82030;SDS011;71592;52.178;4.512;2023-08-24T11:50:11;17.15;;;14.95;;
82030;SDS011;71592;52.178;4.512;2023-08-24T11:52:41;17.77;;;15.27;;
82030;SDS011;71592;52.178;4.512;2023-08-24T11:55:07;18.20;;;15.77;;
82030;SDS011;71592;52.178;4.512;2023-08-24T11:57:34;19.48;;;15.65;;
82030;SDS011;71592;52.178;4.512;2023-08-24T12:00:00;17.40;;;15.35;;
82030;SDS011;71592;52.178;4.512;2023-08-24T12:02:27;17.80;;;15.85;;
82030;SDS011;71592;52.178;4.512;2023-08-24T12:04:52;17.73;;;14.43;;
82030;SDS011;71592;52.178;4.512;2023-08-24T12:07:20;18.08;;;14.95;;
82030;SDS011;71592;52.178;4.512;2023-08-24T12:09:46;17.88;;;15.13;;
82030;SDS011;71592;52.178;4.512;2023-08-24T12:12:12;17.38;;;14.45;;
82030;SDS011;71592;52.178;4.512;2023-08-24T12:14:44;22.42;;;15.40;;
82030;SDS011;71592;52.178;4.512;2023-08-24T12:17:10;17.35;;;13.90;;
82030;SDS011;71592;52.178;4.512;2023-08-24T12:19:35;18.98;;;15.52;;
82030;SDS011;71592;52.178;4.512;2023-08-24T12:22:01;16.58;;;14.88;;
82030;SDS011;71592;52.178;4.512;2023-08-24T12:24:26;16.75;;;14.52;;
82030;SDS011;71592;52.178;4.512;2023-08-24T12:26:55;17.42;;;15.20;;
82030;SDS011;71592;52.178;4.512;2023-08-24T12:29:26;15.48;;;13.15;;
82030;SDS011;71592;52.178;4.512;2023-08-24T12:31:52;19.58;;;13.85;;
82030;SDS011;71592;52.178;4.512;2023-08-24T12:34:22;16.52;;;13.68;;
82030;SDS011;71592;52.178;4.512;2023-08-24T12:36:48;15.13;;;13.30;;
82030;SDS011;71592;52.178;4.512;2023-08-24T12:39:14;16.20;;;14.27;;
82030;SDS011;71592;52.178;4.512;2023-08-24T12:41:40;15.57;;;13.88;;
82030;SDS011;71592;52.178;4.512;2023-08-24T12:44:06;15.93;;;14.00;;
82030;SDS011;71592;52.178;4.512;2023-08-24T12:46:32;16.67;;;14.93;;
82030;SDS011;71592;52.178;4.512;2023-08-24T12:49:00;17.85;;;14.20;;
82030;SDS011;71592;52.178;4.512;2023-08-24T12:51:25;17.20;;;15.07;;
82030;SDS011;71592;52.178;4.512;2023-08-24T12:53:51;19.45;;;15.55;;
82030;SDS011;71592;52.178;4.512;2023-08-24T12:56:17;16.83;;;14.48;;
82030;SDS011;71592;52.178;4.512;2023-08-24T12:58:42;19.23;;;14.65;;
82030;SDS011;71592;52.178;4.512;2023-08-24T13:01:08;16.88;;;15.13;;
82030;SDS011;71592;52.178;4.512;2023-08-24T13:03:33;17.27;;;14.05;;
82030;SDS011;71592;52.178;4.512;2023-08-24T13:06:00;15.85;;;13.48;;
82030;SDS011;71592;52.178;4.512;2023-08-24T13:08:26;17.83;;;13.75;;
82030;SDS011;71592;52.178;4.512;2023-08-24T13:10:51;15.05;;;13.23;;
82030;SDS011;71592;52.178;4.512;2023-08-24T13:13:17;17.73;;;14.48;;
82030;SDS011;71592;52.178;4.512;2023-08-24T13:15:42;17.80;;;13.55;;
82030;SDS011;71592;52.178;4.512;2023-08-24T13:18:08;16.13;;;13.57;;
82030;SDS011;71592;52.178;4.512;2023-08-24T13:20:33;17.77;;;13.00;;
82030;SDS011;71592;52.178;4.512;2023-08-24T13:22:59;15.85;;;13.15;;
82030;SDS011;71592;52.178;4.512;2023-08-24T13:25:24;18.80;;;13.27;;
82030;SDS011;71592;52.178;4.512;2023-08-24T13:27:50;19.08;;;15.32;;
82030;SDS011;71592;52.178;4.512;2023-08-24T13:30:15;16.90;;;14.35;;
82030;SDS011;71592;52.178;4.512;2023-08-24T13:32:41;19.05;;;14.75;;
82030;SDS011;71592;52.178;4.512;2023-08-24T13:35:06;18.27;;;14.07;;
82030;SDS011;71592;52.178;4.512;2023-08-24T13:37:33;16.85;;;14.95;;
82030;SDS011;71592;52.178;4.512;2023-08-24T13:39:59;17.08;;;13.65;;
82030;SDS011;71592;52.178;4.512;2023-08-24T13:42:24;17.73;;;14.55;;
82030;SDS011;71592;52.178;4.512;2023-08-24T13:44:50;19.52;;;15.90;;
82030;SDS011;71592;52.178;4.512;2023-08-24T13:47:15;18.88;;;14.45;;
82030;SDS011;71592;52.178;4.512;2023-08-24T13:49:41;18.20;;;15.68;;
82030;SDS011;71592;52.178;4.512;2023-08-24T13:52:06;20.75;;;15.25;;
82030;SDS011;71592;52.178;4.512;2023-08-24T13:54:32;19.45;;;17.00;;
82030;SDS011;71592;52.178;4.512;2023-08-24T13:56:58;20.67;;;16.15;;
82030;SDS011;71592;52.178;4.512;2023-08-24T13:59:25;21.17;;;16.60;;
82030;SDS011;71592;52.178;4.512;2023-08-24T14:01:51;18.70;;;15.88;;
82030;SDS011;71592;52.178;4.512;2023-08-24T14:04:16;19.90;;;17.08;;
82030;SDS011;71592;52.178;4.512;2023-08-24T14:06:41;19.73;;;17.30;;
82030;SDS011;71592;52.178;4.512;2023-08-24T14:09:07;18.85;;;16.85;;
82030;SDS011;71592;52.178;4.512;2023-08-24T14:11:32;21.60;;;18.08;;
82030;SDS011;71592;52.178;4.512;2023-08-24T14:13:58;24.38;;;19.40;;
82030;SDS011;71592;52.178;4.512;2023-08-24T14:16:24;21.92;;;19.05;;
82030;SDS011;71592;52.178;4.512;2023-08-24T14:18:51;21.75;;;18.98;;
82030;SDS011;71592;52.178;4.512;2023-08-24T14:21:18;20.15;;;18.02;;
82030;SDS011;71592;52.178;4.512;2023-08-24T14:23:45;20.33;;;18.00;;
82030;SDS011;71592;52.178;4.512;2023-08-24T14:26:11;22.23;;;19.35;;
82030;SDS011;71592;52.178;4.512;2023-08-24T14:28:54;25.15;;;19.40;;
82030;SDS011;71592;52.178;4.512;2023-08-24T14:31:22;21.30;;;18.85;;
82030;SDS011;71592;52.178;4.512;2023-08-24T14:33:48;23.80;;;20.52;;
82030;SDS011;71592;52.178;4.512;2023-08-24T14:36:17;22.95;;;19.75;;
82030;SDS011;71592;52.178;4.512;2023-08-24T14:38:43;25.67;;;22.90;;
82030;SDS011;71592;52.178;4.512;2023-08-24T14:41:09;25.02;;;20.80;;